createdAt,value
2023-01-25T00:01:36.695Z,102401.06
2023-01-25T00:04:03.820Z,102397.63
2023-01-25T00:06:30.833Z,102409.47
2023-01-25T00:08:57.834Z,102415.56
2023-01-25T00:11:24.895Z,102421.03
2023-01-25T00:13:54.637Z,102415.13
2023-01-25T00:16:22.341Z,102412.41
2023-01-25T00:18:49.853Z,102424.72
2023-01-25T00:21:20.957Z,102418.44
2023-01-25T00:23:48.285Z,102411.72
2023-01-25T00:26:15.805Z,102400.94
2023-01-25T00:28:43.165Z,102394.78
2023-01-25T00:31:21.490Z,102397.38
2023-01-25T00:34:01.384Z,102395.88
2023-01-25T00:36:36.879Z,102394.16
2023-01-25T00:39:12.395Z,102393.03
2023-01-25T00:41:40.807Z,102395.81
2023-01-25T00:44:07.967Z,102400.75
2023-01-25T00:46:35.052Z,102392.41
2023-01-25T00:49:02.255Z,102379.97
2023-01-25T00:51:29.285Z,102379.63
2023-01-25T00:53:56.342Z,102386.69
2023-01-25T00:56:23.479Z,102374.75
2023-01-25T00:58:50.549Z,102383.69
2023-01-25T01:01:17.625Z,102380.03
2023-01-25T01:03:44.687Z,102384.78
2023-01-25T01:06:13.052Z,102380.06
2023-01-25T01:08:41.811Z,102381.28
2023-01-25T01:11:12.732Z,102372.41
2023-01-25T01:13:41.052Z,102375.47
2023-01-25T01:16:12.631Z,102371.97
2023-01-25T01:18:44.214Z,102368.09
2023-01-25T01:21:13.553Z,102365.00
2023-01-25T01:23:41.144Z,102372.88
2023-01-25T01:26:13.754Z,102370.28
2023-01-25T01:28:41.037Z,102377.66
2023-01-25T01:31:15.042Z,102386.25
2023-01-25T01:33:42.325Z,102371.34
2023-01-25T01:36:13.551Z,102380.75
2023-01-25T01:38:41.549Z,102372.13
2023-01-25T01:41:09.461Z,102365.25
2023-01-25T01:43:37.248Z,102358.03
2023-01-25T01:46:19.057Z,102357.22
2023-01-25T01:49:04.021Z,102355.50
2023-01-25T01:51:58.150Z,102369.59
2023-01-25T01:54:43.705Z,102363.47
2023-01-25T01:57:20.267Z,102363.63
2023-01-25T02:00:03.944Z,102370.03
2023-01-25T02:02:31.028Z,102363.41
2023-01-25T02:05:03.780Z,102357.59
2023-01-25T02:07:37.272Z,102354.09
2023-01-25T02:10:09.604Z,102348.56
2023-01-25T02:12:37.954Z,102357.50
2023-01-25T02:15:07.139Z,102347.69
2023-01-25T02:17:39.891Z,102341.84
2023-01-25T02:20:30.053Z,102340.63
2023-01-25T02:23:11.552Z,102342.16
2023-01-25T02:25:38.783Z,102334.03
2023-01-25T02:28:18.965Z,102339.56
2023-01-25T02:30:47.127Z,102336.31
2023-01-25T02:33:14.384Z,102333.44
2023-01-25T02:35:53.970Z,102330.38
2023-01-25T02:38:21.452Z,102336.81
2023-01-25T02:41:03.232Z,102327.91
2023-01-25T02:43:33.771Z,102324.88
2023-01-25T02:46:27.796Z,102324.06
2023-01-25T02:48:56.460Z,102316.38
2023-01-25T02:51:27.199Z,102328.22
2023-01-25T02:53:54.682Z,102315.63
2023-01-25T02:56:22.235Z,102317.91
2023-01-25T02:58:49.769Z,102321.75
2023-01-25T03:01:17.528Z,102311.28
2023-01-25T03:03:44.685Z,102316.06
2023-01-25T03:06:12.009Z,102305.31
2023-01-25T03:08:39.099Z,102302.25
2023-01-25T03:11:07.756Z,102290.84
2023-01-25T03:13:36.092Z,102288.69
2023-01-25T03:16:10.647Z,102281.13
2023-01-25T03:18:38.742Z,102285.53
2023-01-25T03:21:12.664Z,102293.09
2023-01-25T03:23:40.437Z,102278.53
2023-01-25T03:26:19.118Z,102277.19
2023-01-25T03:28:46.425Z,102282.41
2023-01-25T03:31:16.331Z,102275.38
2023-01-25T03:33:43.974Z,102280.81
2023-01-25T03:36:11.396Z,102277.63
2023-01-25T03:38:38.513Z,102272.00
2023-01-25T03:41:05.747Z,102274.84
2023-01-25T03:43:32.879Z,102269.94
2023-01-25T03:46:02.169Z,102255.09
2023-01-25T03:48:29.729Z,102255.75
2023-01-25T03:50:59.408Z,102271.69
2023-01-25T03:53:30.282Z,102271.09
2023-01-25T03:56:03.152Z,102261.53
2023-01-25T03:58:31.302Z,102244.25
2023-01-25T04:01:04.180Z,102259.00
2023-01-25T04:03:32.337Z,102257.22
2023-01-25T04:06:00.406Z,102257.88
2023-01-25T04:08:27.716Z,102249.13
2023-01-25T04:11:00.545Z,102251.63
2023-01-25T04:13:28.321Z,102255.00
2023-01-25T04:15:55.491Z,102250.38
2023-01-25T04:18:22.631Z,102246.03
2023-01-25T04:20:55.153Z,102244.38
2023-01-25T04:23:23.518Z,102250.38
2023-01-25T04:25:59.830Z,102245.75
2023-01-25T04:28:28.375Z,102240.28
2023-01-25T04:30:57.041Z,102248.06
2023-01-25T04:33:25.287Z,102245.22
2023-01-25T04:35:52.631Z,102245.19
2023-01-25T04:38:20.042Z,102232.81
2023-01-25T04:40:47.248Z,102239.09
2023-01-25T04:43:16.654Z,102235.53
2023-01-25T04:45:43.999Z,102232.09
2023-01-25T04:48:13.361Z,102234.97
2023-01-25T04:50:42.402Z,102225.75
2023-01-25T04:53:11.746Z,102242.97
2023-01-25T04:55:38.896Z,102243.28
2023-01-25T04:58:05.985Z,102230.88
2023-01-25T05:00:33.485Z,102243.91
2023-01-25T05:03:00.513Z,102238.72
2023-01-25T05:05:27.875Z,102236.56
2023-01-25T05:07:54.979Z,102244.38
2023-01-25T05:10:23.096Z,102243.91
2023-01-25T05:12:50.178Z,102237.63
2023-01-25T05:15:17.275Z,102242.69
2023-01-25T05:17:44.771Z,102231.97
2023-01-25T05:20:12.549Z,102236.28
2023-01-25T05:22:39.617Z,102226.44
2023-01-25T05:25:27.040Z,102227.84
2023-01-25T05:27:54.050Z,102228.94
2023-01-25T05:30:21.186Z,102227.69
2023-01-25T05:32:50.399Z,102235.34
2023-01-25T05:35:17.622Z,102230.75
2023-01-25T05:37:44.623Z,102226.63
2023-01-25T05:40:12.313Z,102229.34
2023-01-25T05:42:39.455Z,102231.06
2023-01-25T05:45:07.841Z,102221.72
2023-01-25T05:47:35.206Z,102224.19
2023-01-25T05:50:02.227Z,102219.56
2023-01-25T05:52:29.197Z,102215.44
2023-01-25T05:54:56.180Z,102211.34
2023-01-25T05:57:23.183Z,102201.22
2023-01-25T05:59:50.181Z,102208.88
2023-01-25T06:02:17.244Z,102202.56
2023-01-25T06:04:44.370Z,102202.56
2023-01-25T06:07:11.369Z,102201.69
2023-01-25T06:09:38.396Z,102190.22
2023-01-25T06:12:06.851Z,102189.59
2023-01-25T06:14:33.888Z,102195.34
2023-01-25T06:17:01.054Z,102205.66
2023-01-25T06:19:28.361Z,102202.75
2023-01-25T06:21:55.407Z,102208.41
2023-01-25T06:24:22.460Z,102196.00
2023-01-25T06:26:49.548Z,102197.41
2023-01-25T06:29:16.616Z,102201.53
2023-01-25T06:31:43.773Z,102202.63
2023-01-25T06:34:12.662Z,102200.75
2023-01-25T06:36:39.647Z,102200.47
2023-01-25T06:39:06.794Z,102192.47
2023-01-25T06:41:34.046Z,102191.06
2023-01-25T06:44:01.156Z,102200.59
2023-01-25T06:46:28.213Z,102192.00
2023-01-25T06:48:55.250Z,102185.13
2023-01-25T06:51:22.238Z,102191.88
2023-01-25T06:53:49.386Z,102187.28
2023-01-25T06:56:20.797Z,102190.97
2023-01-25T06:58:48.691Z,102182.09
2023-01-25T07:01:22.755Z,102185.75
2023-01-25T07:03:52.712Z,102179.31
2023-01-25T07:06:20.942Z,102179.47
2023-01-25T07:08:49.255Z,102168.75
2023-01-25T07:11:19.149Z,102171.31
2023-01-25T07:13:47.720Z,102171.13
2023-01-25T07:16:19.258Z,102164.38
2023-01-25T07:18:47.154Z,102158.59
2023-01-25T07:21:23.313Z,102174.69
2023-01-25T07:23:51.517Z,102169.66
2023-01-25T07:26:26.275Z,102172.97
2023-01-25T07:28:55.803Z,102168.06
2023-01-25T07:31:24.034Z,102170.09
2023-01-25T07:33:53.691Z,102168.56
2023-01-25T07:36:21.942Z,102170.41
2023-01-25T07:38:49.324Z,102167.03
2023-01-25T07:41:19.532Z,102158.09
2023-01-25T07:43:46.610Z,102153.06
2023-01-25T07:46:15.584Z,102146.16
2023-01-25T07:48:48.643Z,102152.63
2023-01-25T07:51:23.723Z,102152.63
2023-01-25T07:53:54.252Z,102159.03
2023-01-25T07:56:24.597Z,102151.34
2023-01-25T07:58:54.826Z,102156.25
2023-01-25T08:01:25.115Z,102154.41
2023-01-25T08:03:55.739Z,102144.63
2023-01-25T08:06:30.854Z,102143.59
2023-01-25T08:08:59.994Z,102150.53
2023-01-25T08:11:30.166Z,102141.06
2023-01-25T08:13:57.602Z,102151.97
2023-01-25T08:16:27.663Z,102144.03
2023-01-25T08:18:58.196Z,102147.16
2023-01-25T08:21:30.194Z,102138.03
2023-01-25T08:24:02.545Z,102145.75
2023-01-25T08:26:30.098Z,102145.06
2023-01-25T08:28:57.902Z,102142.34
2023-01-25T08:31:31.419Z,102134.03
2023-01-25T08:33:59.474Z,102137.25
2023-01-25T08:36:30.243Z,102128.28
2023-01-25T08:39:06.009Z,102132.97
2023-01-25T08:41:35.622Z,102130.69
2023-01-25T08:44:02.785Z,102126.56
2023-01-25T08:46:33.341Z,102115.78
2023-01-25T08:49:02.363Z,102112.41
2023-01-25T08:51:31.680Z,102120.59
2023-01-25T08:54:04.984Z,102125.28
2023-01-25T08:56:32.210Z,102117.59
2023-01-25T08:58:59.258Z,102121.34
2023-01-25T09:01:26.269Z,102116.72
2023-01-25T09:03:54.765Z,102117.22
2023-01-25T09:06:21.829Z,102112.31
2023-01-25T09:08:49.677Z,102104.34
2023-01-25T09:11:21.166Z,102104.13
2023-01-25T09:13:49.235Z,102111.19
2023-01-25T09:16:28.678Z,102102.34
2023-01-25T09:18:59.193Z,102089.06
2023-01-25T09:21:26.362Z,102086.94
2023-01-25T09:24:05.929Z,102099.69
2023-01-25T09:26:37.689Z,102082.31
2023-01-25T09:29:05.428Z,102090.25
2023-01-25T09:31:32.502Z,102092.09
2023-01-25T09:33:59.619Z,102081.41
2023-01-25T09:36:27.009Z,102072.97
2023-01-25T09:38:55.075Z,102069.28
2023-01-25T09:41:25.068Z,102063.16
2023-01-25T09:44:13.788Z,102060.47
2023-01-25T09:46:42.510Z,102052.97
2023-01-25T09:49:39.671Z,102050.88
2023-01-25T09:53:12.442Z,102044.66
2023-01-25T09:55:40.260Z,102051.78
2023-01-25T09:58:18.275Z,102049.84
2023-01-25T10:00:48.175Z,102044.09
2023-01-25T10:03:57.829Z,102052.19
2023-01-25T10:06:46.078Z,102047.88
2023-01-25T10:09:42.666Z,102039.16
2023-01-25T10:12:19.233Z,102029.72
2023-01-25T10:14:46.581Z,102033.06
2023-01-25T10:17:40.433Z,102035.59
2023-01-25T10:20:51.101Z,102033.44
2023-01-25T10:23:36.065Z,102025.28
2023-01-25T10:26:23.897Z,102023.56
2023-01-25T10:29:18.049Z,102017.50
2023-01-25T10:31:50.550Z,102017.13
2023-01-25T10:34:56.793Z,101999.97
2023-01-25T10:37:30.890Z,101998.78
2023-01-25T10:40:09.591Z,101996.66
2023-01-25T10:43:02.275Z,101990.50
2023-01-25T10:45:29.289Z,101984.34
2023-01-25T10:48:06.366Z,101987.72
2023-01-25T10:50:46.545Z,101980.47
2023-01-25T10:53:37.142Z,101980.41
2023-01-25T10:56:12.924Z,101966.00
2023-01-25T10:58:47.024Z,101979.00
2023-01-25T11:01:31.301Z,101969.81
2023-01-25T11:03:59.557Z,101974.13
2023-01-25T11:06:34.211Z,101971.00
2023-01-25T11:09:22.850Z,101958.78
2023-01-25T11:12:00.807Z,101955.22
2023-01-25T11:14:33.463Z,101948.06
2023-01-25T11:17:04.252Z,101937.28
2023-01-25T11:19:40.496Z,101941.41
2023-01-25T11:22:24.503Z,101939.81
2023-01-25T11:24:52.090Z,101932.53
2023-01-25T11:27:27.388Z,101925.50
2023-01-25T11:30:11.202Z,101920.66
2023-01-25T11:32:39.802Z,101929.44
2023-01-25T11:35:27.545Z,101925.28
2023-01-25T11:38:19.919Z,101916.44
2023-01-25T11:40:57.167Z,101926.94
2023-01-25T11:43:52.782Z,101924.00
2023-01-25T11:47:07.262Z,101924.84
2023-01-25T11:50:01.376Z,101921.69
2023-01-25T11:52:50.441Z,101922.59
2023-01-25T11:55:54.382Z,101911.94
2023-01-25T11:58:39.989Z,101896.13
2023-01-25T12:01:34.828Z,101892.91
2023-01-25T12:04:36.197Z,101881.34
2023-01-25T12:07:25.518Z,101875.63
2023-01-25T12:10:28.383Z,101873.84
2023-01-25T12:13:15.609Z,101874.22
2023-01-25T12:16:18.939Z,101867.78
2023-01-25T12:19:16.551Z,101858.78
2023-01-25T12:22:12.182Z,101854.84
2023-01-25T12:25:17.077Z,101858.16
2023-01-25T12:27:56.201Z,101842.50
2023-01-25T12:31:12.617Z,101849.50
2023-01-25T12:34:03.840Z,101848.94
2023-01-25T12:37:00.110Z,101842.47
2023-01-25T12:39:40.335Z,101841.13
2023-01-25T12:42:23.270Z,101844.97
2023-01-25T12:45:11.887Z,101848.59
2023-01-25T12:47:47.286Z,101832.53
2023-01-25T12:50:46.284Z,101849.34
2023-01-25T12:53:48.299Z,101847.31
2023-01-25T12:56:44.103Z,101841.50
2023-01-25T12:59:43.831Z,101840.16
2023-01-25T13:02:34.241Z,101835.47
2023-01-25T13:05:16.299Z,101836.53
2023-01-25T13:08:30.053Z,101836.06
2023-01-25T13:11:15.453Z,101829.22
2023-01-25T13:13:42.816Z,101821.44
2023-01-25T13:16:36.528Z,101812.00
2023-01-25T13:19:03.888Z,101805.84
2023-01-25T13:21:44.979Z,101806.50
2023-01-25T13:24:24.025Z,101795.56
2023-01-25T13:26:54.218Z,101797.38
2023-01-25T13:29:36.484Z,101795.69
2023-01-25T13:32:34.838Z,101790.66
2023-01-25T13:35:02.540Z,101781.41
2023-01-25T13:37:33.408Z,101782.06
2023-01-25T13:40:34.145Z,101780.63
2023-01-25T13:43:05.462Z,101767.41
2023-01-25T13:45:36.426Z,101774.84
2023-01-25T13:48:09.209Z,101772.38
2023-01-25T13:50:43.464Z,101763.00
2023-01-25T13:53:16.467Z,101768.19
2023-01-25T13:56:02.876Z,101760.00
2023-01-25T13:58:48.068Z,101760.25
2023-01-25T14:01:19.898Z,101751.38
2023-01-25T14:04:02.161Z,101748.09
2023-01-25T14:06:39.602Z,101748.22
2023-01-25T14:09:22.797Z,101750.69
2023-01-25T14:12:00.347Z,101749.41
2023-01-25T14:14:33.357Z,101739.88
2023-01-25T14:17:11.937Z,101743.94
2023-01-25T14:19:45.591Z,101743.56
2023-01-25T14:22:28.003Z,101733.84
2023-01-25T14:25:17.642Z,101731.13
2023-01-25T14:28:06.662Z,101736.78
2023-01-25T14:30:36.218Z,101732.94
2023-01-25T14:33:18.848Z,101721.53
2023-01-25T14:35:56.311Z,101722.75
2023-01-25T14:38:43.184Z,101717.50
2023-01-25T14:41:34.787Z,101714.16
2023-01-25T14:44:13.978Z,101717.41
2023-01-25T14:46:41.971Z,101706.84
2023-01-25T14:49:11.932Z,101712.31
2023-01-25T14:51:49.193Z,101708.94
2023-01-25T14:54:26.125Z,101701.88
2023-01-25T14:57:06.035Z,101695.22
2023-01-25T14:59:37.822Z,101687.44
2023-01-25T15:02:44.618Z,101686.78
2023-01-25T15:05:27.718Z,101677.25
2023-01-25T15:08:24.953Z,101684.44
2023-01-25T15:10:53.773Z,101673.22
2023-01-25T15:13:28.287Z,101677.66
2023-01-25T15:16:00.863Z,101673.50
2023-01-25T15:18:54.154Z,101676.09
2023-01-25T15:21:33.061Z,101665.28
2023-01-25T15:24:06.550Z,101663.47
2023-01-25T15:26:35.427Z,101663.72
2023-01-25T15:29:15.188Z,101658.38
2023-01-25T15:31:43.077Z,101652.25
2023-01-25T15:34:21.195Z,101653.81
2023-01-25T15:36:48.508Z,101644.66
2023-01-25T15:39:18.994Z,101646.38
2023-01-25T15:41:46.868Z,101641.28
2023-01-25T15:44:14.051Z,101646.09
2023-01-25T15:46:46.298Z,101641.66
2023-01-25T15:49:28.797Z,101639.59
2023-01-25T15:51:56.560Z,101640.22
2023-01-25T15:54:24.548Z,101641.53
2023-01-25T15:56:56.141Z,101637.09
2023-01-25T15:59:23.653Z,101636.31
2023-01-25T16:01:50.769Z,101636.19
2023-01-25T16:04:17.874Z,101635.78
2023-01-25T16:06:47.735Z,101635.94
2023-01-25T16:09:25.081Z,101629.28
2023-01-25T16:11:58.615Z,101633.19
2023-01-25T16:14:31.447Z,101620.50
2023-01-25T16:17:03.096Z,101625.34
2023-01-25T16:19:31.005Z,101617.13
2023-01-25T16:21:58.288Z,101621.44
2023-01-25T16:24:25.398Z,101616.34
2023-01-25T16:26:58.361Z,101608.91
2023-01-25T16:29:26.388Z,101605.78
2023-01-25T16:31:54.443Z,101607.25
2023-01-25T16:34:22.192Z,101598.63
2023-01-25T16:36:51.012Z,101605.69
2023-01-25T16:39:24.255Z,101607.13
2023-01-25T16:41:51.616Z,101600.47
2023-01-25T16:44:19.348Z,101598.63
2023-01-25T16:46:48.329Z,101589.91
2023-01-25T16:49:27.458Z,101582.47
2023-01-25T16:51:55.353Z,101590.03
2023-01-25T16:54:23.578Z,101576.84
2023-01-25T16:56:52.266Z,101583.75
2023-01-25T16:59:20.567Z,101574.88
2023-01-25T17:01:48.261Z,101568.38
2023-01-25T17:04:15.725Z,101560.28
2023-01-25T17:06:46.621Z,101563.03
2023-01-25T17:09:23.339Z,101555.84
2023-01-25T17:11:52.137Z,101557.78
2023-01-25T17:14:20.228Z,101551.94
2023-01-25T17:16:51.347Z,101555.72
2023-01-25T17:19:20.033Z,101559.00
2023-01-25T17:21:47.222Z,101535.13
2023-01-25T17:24:18.065Z,101538.25
2023-01-25T17:26:45.162Z,101542.28
2023-01-25T17:29:13.769Z,101549.34
2023-01-25T17:31:42.235Z,101544.38
2023-01-25T17:34:13.686Z,101537.75
2023-01-25T17:36:40.865Z,101528.09
2023-01-25T17:39:08.487Z,101523.00
2023-01-25T17:41:36.060Z,101534.19
2023-01-25T17:44:03.628Z,101525.22
2023-01-25T17:46:35.070Z,101525.22
2023-01-25T17:49:05.897Z,101529.78
2023-01-25T17:51:34.744Z,101520.53
2023-01-25T17:54:02.837Z,101519.59
2023-01-25T17:56:30.443Z,101506.56
2023-01-25T17:59:00.550Z,101522.09
2023-01-25T18:01:31.259Z,101507.63
2023-01-25T18:03:58.719Z,101503.97
2023-01-25T18:06:29.807Z,101493.91
2023-01-25T18:09:00.741Z,101500.06
2023-01-25T18:11:34.435Z,101498.25
2023-01-25T18:14:08.224Z,101488.09
2023-01-25T18:16:38.925Z,101493.16
2023-01-25T18:19:06.649Z,101496.63
2023-01-25T18:21:35.075Z,101497.69
2023-01-25T18:24:25.853Z,101505.28
2023-01-25T18:27:00.170Z,101494.19
2023-01-25T18:29:45.698Z,101492.09
2023-01-25T18:32:13.954Z,101498.13
2023-01-25T18:34:41.129Z,101501.22
2023-01-25T18:37:18.274Z,101497.72
2023-01-25T18:39:54.384Z,101490.69
2023-01-25T18:42:24.539Z,101495.63
2023-01-25T18:44:51.833Z,101486.75
2023-01-25T18:47:21.578Z,101489.91
2023-01-25T18:49:50.764Z,101484.69
2023-01-25T18:52:20.427Z,101482.22
2023-01-25T18:54:47.556Z,101479.59
2023-01-25T18:57:15.814Z,101480.88
2023-01-25T18:59:43.930Z,101485.72
2023-01-25T19:02:14.519Z,101483.38
2023-01-25T19:04:41.566Z,101492.13
2023-01-25T19:07:08.826Z,101480.53
2023-01-25T19:09:35.910Z,101487.03
2023-01-25T19:12:03.369Z,101478.53
2023-01-25T19:14:30.419Z,101483.38
2023-01-25T19:16:57.508Z,101469.19
2023-01-25T19:19:24.585Z,101468.91
2023-01-25T19:21:51.697Z,101465.00
2023-01-25T19:24:19.797Z,101451.81
2023-01-25T19:26:47.514Z,101448.72
2023-01-25T19:29:15.626Z,101454.03
2023-01-25T19:31:42.755Z,101447.00
2023-01-25T19:34:09.923Z,101435.41
2023-01-25T19:36:47.461Z,101445.06
2023-01-25T19:39:14.580Z,101443.88
2023-01-25T19:41:42.203Z,101446.50
2023-01-25T19:44:13.758Z,101442.72
2023-01-25T19:46:40.946Z,101436.72
2023-01-25T19:49:10.539Z,101435.41
2023-01-25T19:51:41.442Z,101433.06
2023-01-25T19:54:16.750Z,101435.94
2023-01-25T19:56:47.436Z,101421.47
2023-01-25T19:59:24.955Z,101414.06
2023-01-25T20:01:52.451Z,101409.38
2023-01-25T20:04:22.977Z,101402.84
2023-01-25T20:06:51.618Z,101406.63
2023-01-25T20:09:20.260Z,101401.03
2023-01-25T20:11:47.630Z,101403.34
2023-01-25T20:14:15.840Z,101395.41
2023-01-25T20:16:42.966Z,101396.47
2023-01-25T20:19:12.510Z,101395.03
2023-01-25T20:21:39.948Z,101394.38
2023-01-25T20:24:09.869Z,101384.88
2023-01-25T20:26:39.393Z,101392.03
2023-01-25T20:29:07.607Z,101385.38
2023-01-25T20:31:38.040Z,101378.88
2023-01-25T20:34:10.437Z,101374.44
2023-01-25T20:36:37.780Z,101382.09
2023-01-25T20:39:07.102Z,101378.44
2023-01-25T20:41:35.081Z,101369.63
2023-01-25T20:44:11.281Z,101360.38
2023-01-25T20:46:40.984Z,101364.13
2023-01-25T20:49:13.800Z,101361.41
2023-01-25T20:51:42.841Z,101364.53
2023-01-25T20:54:10.558Z,101365.19
2023-01-25T20:56:37.815Z,101362.41
2023-01-25T20:59:05.883Z,101356.56
2023-01-25T21:01:36.664Z,101357.88
2023-01-25T21:04:06.374Z,101356.72
2023-01-25T21:06:35.233Z,101368.00
2023-01-25T21:09:04.037Z,101362.56
2023-01-25T21:11:31.705Z,101363.75
2023-01-25T21:13:59.627Z,101365.84
2023-01-25T21:16:27.163Z,101355.06
2023-01-25T21:18:58.308Z,101353.59
2023-01-25T21:21:34.652Z,101359.72
2023-01-25T21:24:02.966Z,101346.78
2023-01-25T21:26:33.530Z,101342.22
2023-01-25T21:29:02.216Z,101340.41
2023-01-25T21:31:32.998Z,101332.38
2023-01-25T21:34:01.041Z,101340.81
2023-01-25T21:36:28.330Z,101333.66
2023-01-25T21:38:56.213Z,101331.72
2023-01-25T21:41:26.402Z,101339.78
2023-01-25T21:44:14.263Z,101338.47
2023-01-25T21:46:41.763Z,101336.81
2023-01-25T21:49:30.359Z,101332.38
2023-01-25T21:52:03.785Z,101347.22
2023-01-25T21:54:37.012Z,101347.59
2023-01-25T21:57:09.427Z,101340.41
2023-01-25T21:59:38.111Z,101340.69
2023-01-25T22:02:08.243Z,101327.78
2023-01-25T22:04:36.217Z,101324.53
2023-01-25T22:07:04.137Z,101332.88
2023-01-25T22:09:31.239Z,101328.81
2023-01-25T22:11:58.594Z,101327.16
2023-01-25T22:14:25.672Z,101325.44
2023-01-25T22:16:53.310Z,101321.00
2023-01-25T22:19:20.347Z,101321.00
2023-01-25T22:21:47.829Z,101320.50
2023-01-25T22:24:15.368Z,101320.88
2023-01-25T22:27:17.234Z,101327.00
2023-01-25T22:29:44.274Z,101316.84
2023-01-25T22:32:11.272Z,101309.31
2023-01-25T22:34:38.284Z,101312.13
2023-01-25T22:37:05.362Z,101307.59
2023-01-25T22:39:32.374Z,101312.19
2023-01-25T22:41:59.372Z,101305.28
2023-01-25T22:44:26.408Z,101294.59
2023-01-25T22:46:53.866Z,101298.50
2023-01-25T22:49:20.989Z,101302.75
2023-01-25T22:51:47.998Z,101297.44
2023-01-25T22:54:15.004Z,101301.09
2023-01-25T22:56:42.050Z,101297.94
2023-01-25T22:59:12.189Z,101291.53
2023-01-25T23:01:39.256Z,101285.66
2023-01-25T23:04:06.435Z,101281.25
2023-01-25T23:06:36.560Z,101278.53
2023-01-25T23:09:06.400Z,101269.13
2023-01-25T23:11:37.473Z,101268.66
2023-01-25T23:14:30.314Z,101258.81
2023-01-25T23:17:17.580Z,101261.91
2023-01-25T23:19:44.824Z,101254.66
2023-01-25T23:22:12.520Z,101260.75
2023-01-25T23:24:39.637Z,101243.66
2023-01-25T23:27:06.735Z,101241.13
2023-01-25T23:29:33.808Z,101243.97
2023-01-25T23:32:00.897Z,101236.94
2023-01-25T23:34:28.035Z,101240.47
2023-01-25T23:36:55.080Z,101232.38
2023-01-25T23:39:23.628Z,101230.03
2023-01-25T23:41:52.457Z,101227.97
2023-01-25T23:44:19.431Z,101226.88
2023-01-25T23:46:46.520Z,101228.47
2023-01-25T23:49:13.810Z,101222.22
2023-01-25T23:51:40.854Z,101220.56
2023-01-25T23:54:07.964Z,101221.44
2023-01-25T23:56:34.956Z,101219.50
2023-01-25T23:59:02.062Z,101216.34
